Sherman, Wisconsin
Current Conditions -  °F | °C
As of 10:35 AM on Friday 24 Oct 2014 (Local Time) from KPBH Reporting Station
Overcast Overcast  
Wind Chill: 41°   Ceiling: 200
Heat Index: 45°   Visibility: 7mi
Dew Point: 45°   Wind: 7mph
Humidity: 99%   Direction: 190°S
Pressure: 29.96"   Gusts: NA
Location:  45.9599°N, 90.2362°W
Report Text: KPBH 241535Z AUTO 19006KT 7SM OVC002 07/07 A2996 RMK AO2 T00730072
Loading
Personal Weather Stations






























Interactive Weather Map
Tropical Storm Tracking
New forecast layout! Learn more

10-Day Weather Forecast

Advertisements
Track Severe Weather on mobile